createdAt,value
2022-12-20T00:01:50.604Z,5.50
2022-12-20T00:04:18.220Z,5.60
2022-12-20T00:06:45.789Z,5.50
2022-12-20T00:09:13.220Z,5.40
2022-12-20T00:11:41.340Z,5.30
2022-12-20T00:14:09.812Z,5.30
2022-12-20T00:16:37.808Z,5.30
2022-12-20T00:19:06.428Z,5.60
2022-12-20T00:21:34.552Z,5.70
2022-12-20T00:24:02.232Z,5.60
2022-12-20T00:26:30.521Z,5.60
2022-12-20T00:28:58.500Z,5.60
2022-12-20T00:31:26.681Z,5.50
2022-12-20T00:33:55.024Z,5.70
2022-12-20T00:36:23.757Z,5.60
2022-12-20T00:38:52.204Z,5.50
2022-12-20T00:41:21.795Z,5.40
2022-12-20T00:43:49.309Z,5.40
2022-12-20T00:46:18.079Z,5.50
2022-12-20T00:48:45.656Z,5.60
2022-12-20T00:51:14.632Z,5.70
2022-12-20T00:53:42.510Z,5.70
2022-12-20T00:56:10.397Z,5.60
2022-12-20T00:58:39.037Z,5.60
2022-12-20T01:01:14.757Z,5.80
2022-12-20T01:03:42.925Z,5.80
2022-12-20T01:06:12.359Z,5.80
2022-12-20T01:08:40.278Z,5.90
2022-12-20T01:11:09.476Z,5.90
2022-12-20T01:13:38.348Z,5.80
2022-12-20T01:16:13.789Z,5.80
2022-12-20T01:18:41.362Z,5.90
2022-12-20T01:21:10.287Z,5.70
2022-12-20T01:23:37.997Z,5.60
2022-12-20T01:26:09.304Z,5.60
2022-12-20T01:28:37.741Z,5.60
2022-12-20T01:31:09.056Z,5.70
2022-12-20T01:33:37.106Z,5.80
2022-12-20T01:36:06.016Z,5.70
2022-12-20T01:38:33.860Z,5.60
2022-12-20T01:41:01.743Z,5.60
2022-12-20T01:44:04.715Z,5.50
2022-12-20T01:46:36.552Z,5.50
2022-12-20T01:49:10.988Z,5.50
2022-12-20T01:51:41.169Z,5.50
2022-12-20T01:54:11.573Z,5.50
2022-12-20T01:56:40.728Z,5.60
2022-12-20T01:59:08.467Z,5.60
2022-12-20T02:01:36.110Z,5.60
2022-12-20T02:04:03.867Z,5.70
2022-12-20T02:06:31.297Z,5.70
2022-12-20T02:09:01.854Z,5.80
2022-12-20T02:11:36.690Z,5.80
2022-12-20T02:14:13.402Z,5.70
2022-12-20T02:16:57.073Z,5.60
2022-12-20T02:19:43.120Z,5.50
2022-12-20T02:22:13.885Z,5.50
2022-12-20T02:25:00.280Z,5.50
2022-12-20T02:27:40.666Z,5.60
2022-12-20T02:30:10.180Z,5.70
2022-12-20T02:32:44.654Z,5.80
2022-12-20T02:35:14.135Z,5.90
2022-12-20T02:37:48.710Z,5.90
2022-12-20T02:40:19.933Z,5.90
2022-12-20T02:42:48.432Z,6.00
2022-12-20T02:45:16.330Z,5.80
2022-12-20T02:47:59.853Z,5.70
2022-12-20T02:50:32.766Z,5.60
2022-12-20T02:53:00.684Z,5.70
2022-12-20T02:55:35.329Z,5.70
2022-12-20T02:58:06.355Z,5.70
2022-12-20T03:00:38.278Z,5.80
2022-12-20T03:03:24.251Z,5.90
2022-12-20T03:05:54.819Z,5.80
2022-12-20T03:08:23.508Z,5.80
2022-12-20T03:10:51.527Z,5.70
2022-12-20T03:13:19.428Z,5.70
2022-12-20T03:15:56.274Z,5.70
2022-12-20T03:18:24.201Z,5.60
2022-12-20T03:20:51.619Z,5.70
2022-12-20T03:23:19.108Z,5.80
2022-12-20T03:25:47.173Z,5.80
2022-12-20T03:28:22.119Z,5.80
2022-12-20T03:30:50.274Z,5.80
2022-12-20T03:33:17.770Z,5.80
2022-12-20T03:35:45.354Z,5.70
2022-12-20T03:38:12.970Z,5.70
2022-12-20T03:40:40.426Z,5.70
2022-12-20T03:43:08.160Z,5.70
2022-12-20T03:45:35.652Z,5.80
2022-12-20T03:48:03.423Z,5.90
2022-12-20T03:50:32.544Z,6.00
2022-12-20T03:53:01.940Z,5.90
2022-12-20T03:55:29.682Z,5.80
2022-12-20T03:57:57.245Z,5.80
2022-12-20T04:00:31.865Z,5.80
2022-12-20T04:03:18.757Z,5.90
2022-12-20T04:05:46.415Z,6.10
2022-12-20T04:08:14.148Z,6.00
2022-12-20T04:11:00.545Z,6.10
2022-12-20T04:13:33.499Z,6.00
2022-12-20T04:16:01.510Z,5.90
2022-12-20T04:18:32.928Z,5.80
2022-12-20T04:21:01.483Z,5.80
2022-12-20T04:23:31.416Z,5.90
2022-12-20T04:25:59.637Z,5.90
2022-12-20T04:28:28.779Z,5.80
2022-12-20T04:30:56.952Z,5.90
2022-12-20T04:33:27.565Z,5.90
2022-12-20T04:35:55.133Z,5.90
2022-12-20T04:38:24.048Z,6.00
2022-12-20T04:40:54.054Z,6.00
2022-12-20T04:43:23.163Z,5.80
2022-12-20T04:45:52.715Z,5.70
2022-12-20T04:48:55.277Z,5.70
2022-12-20T04:51:08.938Z,5.80
2022-12-20T04:53:56.754Z,5.90
2022-12-20T04:56:44.504Z,5.90
2022-12-20T04:59:16.581Z,5.90
2022-12-20T05:01:46.636Z,6.00
2022-12-20T05:04:21.351Z,6.10
2022-12-20T05:06:48.913Z,6.00
2022-12-20T05:09:16.472Z,5.80
2022-12-20T05:11:44.166Z,5.80
2022-12-20T05:14:11.661Z,5.70
2022-12-20T05:16:39.506Z,5.70
2022-12-20T05:19:07.426Z,5.60
2022-12-20T05:21:58.065Z,5.70
2022-12-20T05:24:44.481Z,5.70
2022-12-20T05:27:28.291Z,5.90
2022-12-20T05:29:55.730Z,5.90
2022-12-20T05:32:23.371Z,5.80
2022-12-20T05:34:53.655Z,5.90
2022-12-20T05:37:21.200Z,5.90
2022-12-20T05:39:49.091Z,5.80
2022-12-20T05:42:20.857Z,5.90
2022-12-20T05:44:51.723Z,5.90
2022-12-20T05:47:20.264Z,5.90
2022-12-20T05:49:50.175Z,5.80
2022-12-20T05:52:17.853Z,6.00
2022-12-20T05:54:45.411Z,6.10
2022-12-20T05:57:17.142Z,6.00
2022-12-20T05:59:44.719Z,6.10
2022-12-20T06:02:22.828Z,6.00
2022-12-20T06:04:57.968Z,6.10
2022-12-20T06:07:26.379Z,6.00
2022-12-20T06:09:58.125Z,5.80
2022-12-20T06:12:44.215Z,5.60
2022-12-20T06:15:11.854Z,5.70
2022-12-20T06:17:40.016Z,6.00
2022-12-20T06:20:08.197Z,6.00
2022-12-20T06:22:37.898Z,6.00
2022-12-20T06:25:05.985Z,6.00
2022-12-20T06:27:35.263Z,6.10
2022-12-20T06:30:09.807Z,6.10
2022-12-20T06:33:00.047Z,5.90
2022-12-20T06:35:27.728Z,5.90
2022-12-20T06:37:56.799Z,6.00
2022-12-20T06:40:24.530Z,5.90
2022-12-20T06:42:53.052Z,5.90
2022-12-20T06:45:23.599Z,6.00
2022-12-20T06:47:51.525Z,5.90
2022-12-20T06:50:19.198Z,5.70
2022-12-20T06:52:46.735Z,5.90
2022-12-20T06:55:14.188Z,5.90
2022-12-20T06:57:43.084Z,6.00
2022-12-20T07:00:12.840Z,5.90
2022-12-20T07:02:40.651Z,5.80
2022-12-20T07:05:08.409Z,5.80
2022-12-20T07:07:42.181Z,5.90
2022-12-20T07:10:12.440Z,5.90
2022-12-20T07:12:43.918Z,6.00
2022-12-20T07:15:15.169Z,6.10
2022-12-20T07:17:42.666Z,5.90
2022-12-20T07:20:14.227Z,5.90
2022-12-20T07:22:42.269Z,5.90
2022-12-20T07:25:11.504Z,5.90
2022-12-20T07:27:39.052Z,5.80
2022-12-20T07:30:06.811Z,5.90
2022-12-20T07:32:34.279Z,6.10
2022-12-20T07:35:01.749Z,6.10
2022-12-20T07:37:30.163Z,6.20
2022-12-20T07:39:57.685Z,6.10
2022-12-20T07:42:33.656Z,6.20
2022-12-20T07:45:04.022Z,6.20
2022-12-20T07:47:31.570Z,6.20
2022-12-20T07:49:59.034Z,6.10
2022-12-20T07:52:26.901Z,6.20
2022-12-20T07:54:56.081Z,6.20
2022-12-20T07:57:29.930Z,6.20
2022-12-20T07:59:58.973Z,6.20
2022-12-20T08:02:32.973Z,6.20
2022-12-20T08:05:01.281Z,6.00
2022-12-20T08:07:30.001Z,6.10
2022-12-20T08:09:58.095Z,6.00
2022-12-20T08:12:26.179Z,6.00
2022-12-20T08:14:56.390Z,6.00
2022-12-20T08:17:24.232Z,6.20
2022-12-20T08:19:52.334Z,6.30
2022-12-20T08:22:19.986Z,6.20
2022-12-20T08:24:47.419Z,6.20
2022-12-20T08:27:15.613Z,6.20
2022-12-20T08:29:43.271Z,6.30
2022-12-20T08:32:12.653Z,6.30
2022-12-20T08:34:40.261Z,6.40
2022-12-20T08:37:14.250Z,6.20
2022-12-20T08:39:42.378Z,6.30
2022-12-20T08:42:09.953Z,6.20
2022-12-20T08:44:37.921Z,6.20
2022-12-20T08:47:05.499Z,6.30
2022-12-20T08:49:32.995Z,6.30
2022-12-20T08:52:00.471Z,6.20
2022-12-20T08:54:27.970Z,6.30
2022-12-20T08:56:55.429Z,6.20
2022-12-20T08:59:22.875Z,6.10
2022-12-20T09:01:50.811Z,6.20
2022-12-20T09:04:18.346Z,6.10
2022-12-20T09:06:45.889Z,6.20
2022-12-20T09:09:13.627Z,6.20
2022-12-20T09:11:41.048Z,6.20
2022-12-20T09:14:09.441Z,6.20
2022-12-20T09:16:37.085Z,6.30
2022-12-20T09:19:06.467Z,6.40
2022-12-20T09:21:35.100Z,6.40
2022-12-20T09:24:02.629Z,6.40
2022-12-20T09:26:30.910Z,6.30
2022-12-20T09:28:59.194Z,6.40
2022-12-20T09:31:27.304Z,6.50
2022-12-20T09:33:55.838Z,6.60
2022-12-20T09:36:23.911Z,6.60
2022-12-20T09:38:51.612Z,6.60
2022-12-20T09:41:22.901Z,6.50
2022-12-20T09:43:50.804Z,6.40
2022-12-20T09:46:18.514Z,6.50
2022-12-20T09:48:47.010Z,6.50
2022-12-20T09:51:20.680Z,6.40
2022-12-20T09:54:07.064Z,6.40
2022-12-20T09:56:41.032Z,6.50
2022-12-20T09:59:13.178Z,6.70
2022-12-20T10:01:43.512Z,6.90
2022-12-20T10:04:23.667Z,6.80
2022-12-20T10:07:02.941Z,6.70
2022-12-20T10:09:30.423Z,6.70
2022-12-20T10:12:02.497Z,6.80
2022-12-20T10:14:36.116Z,6.70
2022-12-20T10:17:13.615Z,6.80
2022-12-20T10:19:51.745Z,6.60
2022-12-20T10:22:19.188Z,6.50
2022-12-20T10:24:51.857Z,6.60
2022-12-20T10:27:20.101Z,6.50
2022-12-20T10:29:49.491Z,6.40
2022-12-20T10:32:21.579Z,6.50
2022-12-20T10:34:55.181Z,6.50
2022-12-20T10:37:22.546Z,6.50
2022-12-20T10:39:50.962Z,6.40
2022-12-20T10:42:36.626Z,6.40
2022-12-20T10:45:04.739Z,6.50
2022-12-20T10:47:32.192Z,6.50
2022-12-20T10:50:08.505Z,6.60
2022-12-20T10:52:35.935Z,6.60
2022-12-20T10:55:03.486Z,6.60
2022-12-20T10:57:33.650Z,6.50
2022-12-20T11:00:02.293Z,6.40
2022-12-20T11:02:39.510Z,6.30
2022-12-20T11:05:11.032Z,6.40
2022-12-20T11:07:43.654Z,6.40
2022-12-20T11:10:23.495Z,6.50
2022-12-20T11:12:54.662Z,6.50
2022-12-20T11:15:34.331Z,6.70
2022-12-20T11:18:31.950Z,6.80
2022-12-20T11:21:28.507Z,6.90
2022-12-20T11:24:07.117Z,6.90
2022-12-20T11:26:34.525Z,7.10
2022-12-20T11:29:08.027Z,7.10
2022-12-20T11:31:35.793Z,7.20
2022-12-20T11:34:22.135Z,7.10
2022-12-20T11:37:07.884Z,7.10
2022-12-20T11:39:42.153Z,7.20
2022-12-20T11:42:12.737Z,7.20
2022-12-20T11:44:57.960Z,7.20
2022-12-20T11:47:34.160Z,7.10
2022-12-20T11:50:20.595Z,7.10
2022-12-20T11:52:51.250Z,7.10
2022-12-20T11:55:22.870Z,7.10
2022-12-20T11:58:18.076Z,7.20
2022-12-20T12:00:52.390Z,7.10
2022-12-20T12:03:20.219Z,7.10
2022-12-20T12:05:51.273Z,7.10
2022-12-20T12:08:31.434Z,7.10
2022-12-20T12:11:25.474Z,6.90
2022-12-20T12:13:57.856Z,6.70
2022-12-20T12:16:30.743Z,6.60
2022-12-20T12:18:59.595Z,6.60
2022-12-20T12:21:28.835Z,6.80
2022-12-20T12:24:02.875Z,6.80
2022-12-20T12:26:30.322Z,6.80
2022-12-20T12:29:02.416Z,7.00
2022-12-20T12:31:30.062Z,7.10
2022-12-20T12:34:00.611Z,7.10
2022-12-20T12:36:46.773Z,7.10
2022-12-20T12:39:24.287Z,7.10
2022-12-20T12:42:05.523Z,7.00
2022-12-20T12:44:42.115Z,7.00
2022-12-20T12:47:15.955Z,7.10
2022-12-20T12:49:44.262Z,6.90
2022-12-20T12:52:28.749Z,7.10
2022-12-20T12:54:59.715Z,6.90
2022-12-20T12:57:27.828Z,7.00
2022-12-20T12:59:55.255Z,6.90
2022-12-20T13:02:25.075Z,6.90
2022-12-20T13:05:25.970Z,6.90
2022-12-20T13:07:53.890Z,6.80
2022-12-20T13:10:29.626Z,6.80
2022-12-20T13:12:59.015Z,6.70
2022-12-20T13:15:26.479Z,6.70
2022-12-20T13:18:08.931Z,6.80
2022-12-20T13:20:36.840Z,6.80
2022-12-20T13:23:13.346Z,6.90
2022-12-20T13:25:42.183Z,6.90
2022-12-20T13:28:12.718Z,7.10
2022-12-20T13:30:40.298Z,7.10
2022-12-20T13:33:26.075Z,7.10
2022-12-20T13:35:58.749Z,7.20
2022-12-20T13:38:49.797Z,7.20
2022-12-20T13:41:37.232Z,7.20
2022-12-20T13:44:23.922Z,7.20
2022-12-20T13:46:54.607Z,7.20
2022-12-20T13:49:42.297Z,7.20
2022-12-20T13:52:12.782Z,7.20
2022-12-20T13:54:41.476Z,7.20
2022-12-20T13:57:11.191Z,7.10
2022-12-20T13:59:38.635Z,7.10
2022-12-20T14:02:11.092Z,7.10
2022-12-20T14:04:43.081Z,7.10
2022-12-20T14:07:14.903Z,7.10
2022-12-20T14:09:44.230Z,7.10
2022-12-20T14:12:21.326Z,7.10
2022-12-20T14:14:54.532Z,7.20
2022-12-20T14:17:29.735Z,7.20
2022-12-20T14:20:04.950Z,7.20
2022-12-20T14:22:32.962Z,7.20
2022-12-20T14:25:01.475Z,7.20
2022-12-20T14:27:33.516Z,7.20
2022-12-20T14:30:00.988Z,7.20
2022-12-20T14:32:29.252Z,7.30
2022-12-20T14:34:56.697Z,7.30
2022-12-20T14:37:24.013Z,7.20
2022-12-20T14:39:59.256Z,7.30
2022-12-20T14:42:28.422Z,7.30
2022-12-20T14:45:06.664Z,7.30
2022-12-20T14:47:34.254Z,7.30
2022-12-20T14:50:03.597Z,7.20
2022-12-20T14:52:35.849Z,7.20
2022-12-20T14:55:10.281Z,7.20
2022-12-20T14:57:38.449Z,7.20
2022-12-20T15:00:14.817Z,7.20
2022-12-20T15:02:51.903Z,7.20
2022-12-20T15:05:35.375Z,7.20
2022-12-20T15:08:15.346Z,7.20
2022-12-20T15:10:53.536Z,7.10
2022-12-20T15:13:32.192Z,7.10
2022-12-20T15:16:01.126Z,7.10
2022-12-20T15:18:28.652Z,7.20
2022-12-20T15:21:15.884Z,7.20
2022-12-20T15:23:47.997Z,7.10
2022-12-20T15:26:17.304Z,7.10
2022-12-20T15:28:45.022Z,7.20
2022-12-20T15:31:14.291Z,7.10
2022-12-20T15:33:42.215Z,7.10
2022-12-20T15:36:29.042Z,7.10
2022-12-20T15:39:13.821Z,7.00
2022-12-20T15:41:43.930Z,7.10
2022-12-20T15:44:16.379Z,7.10
2022-12-20T15:46:44.669Z,7.30
2022-12-20T15:49:19.633Z,7.20
2022-12-20T15:51:48.757Z,7.20
2022-12-20T15:54:16.273Z,7.40
2022-12-20T15:56:43.697Z,7.20
2022-12-20T15:59:48.397Z,7.10
2022-12-20T16:02:00.803Z,7.10
2022-12-20T16:04:31.243Z,7.10
2022-12-20T16:06:58.681Z,7.20
2022-12-20T16:09:26.200Z,7.20
2022-12-20T16:11:53.671Z,7.20
2022-12-20T16:14:21.647Z,7.10
2022-12-20T16:16:50.353Z,7.10
2022-12-20T16:19:17.982Z,7.00
2022-12-20T16:21:49.731Z,7.00
2022-12-20T16:24:18.445Z,7.00
2022-12-20T16:26:46.407Z,7.00
2022-12-20T16:29:13.848Z,7.00
2022-12-20T16:31:44.720Z,7.00
2022-12-20T16:34:16.261Z,7.00
2022-12-20T16:36:43.989Z,7.00
2022-12-20T16:39:11.454Z,7.10
2022-12-20T16:41:43.815Z,7.00
2022-12-20T16:44:13.567Z,7.00
2022-12-20T16:46:41.059Z,7.00
2022-12-20T16:49:14.853Z,7.00
2022-12-20T16:51:47.673Z,6.90
2022-12-20T16:54:23.278Z,6.90
2022-12-20T16:56:55.283Z,6.90
2022-12-20T16:59:26.371Z,6.90
2022-12-20T17:01:55.473Z,7.00
2022-12-20T17:04:23.657Z,7.00
2022-12-20T17:06:51.170Z,7.00
2022-12-20T17:09:19.350Z,7.00
2022-12-20T17:11:46.924Z,7.00
2022-12-20T17:14:14.430Z,7.20
2022-12-20T17:16:41.890Z,7.20
2022-12-20T17:19:10.901Z,7.30
2022-12-20T17:24:25.510Z,7.40
2022-12-20T17:26:52.960Z,7.40
2022-12-20T17:29:20.712Z,7.30
2022-12-20T17:31:48.602Z,7.20
2022-12-20T17:34:16.044Z,7.10
2022-12-20T17:36:43.612Z,7.00
2022-12-20T17:39:11.128Z,7.10
2022-12-20T17:41:38.605Z,7.00
2022-12-20T17:44:06.741Z,7.10
2022-12-20T17:46:34.178Z,7.10
2022-12-20T17:49:01.528Z,7.20
2022-12-20T17:51:30.479Z,7.20
2022-12-20T17:53:58.884Z,7.10
2022-12-20T17:56:27.408Z,7.00
2022-12-20T17:58:55.271Z,7.30
2022-12-20T18:01:24.011Z,7.20
2022-12-20T18:04:03.684Z,7.10
2022-12-20T18:06:33.064Z,7.10
2022-12-20T18:09:00.686Z,7.10
2022-12-20T18:11:28.647Z,7.10
2022-12-20T18:13:57.714Z,7.00
2022-12-20T18:16:26.427Z,7.00
2022-12-20T18:18:54.193Z,7.10
2022-12-20T18:21:22.357Z,7.10
2022-12-20T18:23:49.852Z,7.00
2022-12-20T18:26:19.035Z,7.20
2022-12-20T18:28:47.720Z,7.30
2022-12-20T18:31:19.373Z,7.20
2022-12-20T18:33:51.078Z,7.20
2022-12-20T18:36:22.725Z,7.10
2022-12-20T18:38:50.963Z,7.20
2022-12-20T18:41:20.027Z,7.20
2022-12-20T18:43:47.673Z,7.30
2022-12-20T18:46:17.081Z,7.00
2022-12-20T18:48:45.534Z,7.10
2022-12-20T18:51:17.474Z,7.00
2022-12-20T18:53:46.277Z,7.00
2022-12-20T18:56:17.841Z,7.00
2022-12-20T18:58:45.442Z,7.00
2022-12-20T19:01:17.554Z,7.10
2022-12-20T19:03:45.332Z,7.10
2022-12-20T19:06:13.361Z,7.10
2022-12-20T19:08:41.425Z,7.20
2022-12-20T19:11:10.397Z,7.00
2022-12-20T19:13:38.412Z,7.00
2022-12-20T19:16:13.555Z,6.90
2022-12-20T19:18:42.571Z,6.90
2022-12-20T19:21:14.446Z,7.00
2022-12-20T19:23:43.320Z,6.90
2022-12-20T19:26:12.248Z,7.00
2022-12-20T19:28:40.465Z,6.90
2022-12-20T19:31:21.223Z,6.90
2022-12-20T19:33:51.092Z,7.00
2022-12-20T19:36:20.053Z,7.00
2022-12-20T19:38:48.540Z,7.00
2022-12-20T19:41:16.324Z,7.00
2022-12-20T19:43:44.009Z,6.90
2022-12-20T19:46:11.511Z,6.90
2022-12-20T19:48:39.156Z,6.90
2022-12-20T19:51:06.884Z,7.00
2022-12-20T19:53:35.709Z,7.00
2022-12-20T19:56:03.348Z,7.00
2022-12-20T19:58:30.920Z,7.00
2022-12-20T20:00:58.688Z,7.10
2022-12-20T20:03:26.730Z,7.00
2022-12-20T20:05:55.270Z,7.00
2022-12-20T20:08:22.852Z,7.00
2022-12-20T20:10:57.066Z,6.90
2022-12-20T20:13:25.105Z,6.90
2022-12-20T20:15:53.515Z,6.90
2022-12-20T20:18:21.735Z,7.00
2022-12-20T20:20:49.264Z,7.00
2022-12-20T20:23:18.292Z,6.90
2022-12-20T20:25:48.733Z,6.90
2022-12-20T20:28:16.469Z,7.00
2022-12-20T20:30:45.038Z,7.00
2022-12-20T20:33:13.013Z,6.90
2022-12-20T20:35:40.504Z,6.90
2022-12-20T20:38:09.913Z,6.90
2022-12-20T20:40:37.630Z,7.00
2022-12-20T20:43:05.221Z,7.00
2022-12-20T20:45:32.633Z,6.90
2022-12-20T20:48:05.739Z,7.00
2022-12-20T20:50:33.822Z,6.90
2022-12-20T20:53:01.324Z,6.90
2022-12-20T20:55:28.803Z,7.00
2022-12-20T20:57:56.261Z,7.10
2022-12-20T21:00:25.390Z,7.10
2022-12-20T21:02:53.044Z,7.00
2022-12-20T21:06:21.925Z,7.00
2022-12-20T21:08:08.258Z,6.90
2022-12-20T21:10:36.259Z,6.80
2022-12-20T21:13:04.874Z,7.00
2022-12-20T21:15:33.515Z,7.00
2022-12-20T21:18:01.472Z,7.00
2022-12-20T21:20:29.022Z,7.10
2022-12-20T21:22:57.415Z,7.10
2022-12-20T21:25:25.012Z,7.10
2022-12-20T21:27:52.473Z,7.00
2022-12-20T21:30:19.967Z,6.90
2022-12-20T21:32:47.500Z,6.90
2022-12-20T21:35:14.946Z,6.90
2022-12-20T21:37:42.585Z,6.90
2022-12-20T21:40:10.317Z,6.90
2022-12-20T21:42:37.943Z,6.90
2022-12-20T21:45:05.800Z,7.00
2022-12-20T21:47:34.822Z,7.00
2022-12-20T21:50:02.284Z,7.10
2022-12-20T21:52:30.444Z,7.10
2022-12-20T21:54:57.935Z,7.20
2022-12-20T21:57:25.659Z,7.20
2022-12-20T21:59:53.069Z,7.00
2022-12-20T22:02:20.766Z,7.00
2022-12-20T22:04:48.364Z,6.90
2022-12-20T22:07:15.857Z,7.10
2022-12-20T22:09:43.446Z,7.20
2022-12-20T22:12:11.026Z,7.20
2022-12-20T22:14:38.487Z,7.00
2022-12-20T22:17:05.899Z,6.90
2022-12-20T22:19:33.421Z,6.90
2022-12-20T22:22:00.863Z,6.90
2022-12-20T22:24:28.376Z,7.00
2022-12-20T22:26:56.041Z,7.00
2022-12-20T22:29:23.468Z,7.00
2022-12-20T22:31:52.773Z,7.00
2022-12-20T22:34:20.472Z,7.00
2022-12-20T22:36:47.904Z,7.10
2022-12-20T22:39:15.457Z,7.10
2022-12-20T22:41:42.976Z,7.00
2022-12-20T22:44:10.533Z,7.00
2022-12-20T22:46:37.928Z,7.00
2022-12-20T22:49:05.449Z,7.00
2022-12-20T22:51:33.876Z,7.00
2022-12-20T22:54:01.517Z,7.00
2022-12-20T22:56:28.975Z,7.10
2022-12-20T22:58:56.405Z,7.20
2022-12-20T23:01:24.260Z,7.30
2022-12-20T23:03:52.127Z,7.20
2022-12-20T23:06:20.778Z,7.00
2022-12-20T23:08:48.892Z,7.00
2022-12-20T23:11:36.277Z,7.20
2022-12-20T23:14:23.298Z,7.10
2022-12-20T23:16:51.073Z,7.00
2022-12-20T23:19:18.919Z,7.00
2022-12-20T23:22:04.938Z,6.90
2022-12-20T23:24:32.468Z,7.00
2022-12-20T23:27:00.241Z,7.00
2022-12-20T23:29:28.467Z,7.20
2022-12-20T23:31:56.508Z,7.30
2022-12-20T23:34:24.568Z,7.20
2022-12-20T23:36:51.976Z,7.00
2022-12-20T23:39:19.441Z,6.90
2022-12-20T23:41:46.826Z,7.00
2022-12-20T23:44:14.381Z,7.00
2022-12-20T23:46:41.882Z,7.00
2022-12-20T23:49:09.459Z,7.20
2022-12-20T23:51:36.925Z,7.20
2022-12-20T23:54:04.469Z,7.00
2022-12-20T23:56:31.893Z,6.90
2022-12-20T23:58:59.329Z,7.00
